sensor_id;sensor_type;location;lat;lon;timestamp;pressure;altitude;pressure_sealevel;temperature;humidity
54600;BME280;40500;51.084;16.958;2023-02-17T00:01:51;100814.53;;;2.78;100.00
54600;BME280;40500;51.084;16.958;2023-02-17T00:04:22;100815.64;;;2.82;100.00
54600;BME280;40500;51.084;16.958;2023-02-17T00:06:56;100811.25;;;2.87;100.00
54600;BME280;40500;51.084;16.958;2023-02-17T00:09:26;100810.16;;;2.92;100.00
54600;BME280;40500;51.084;16.958;2023-02-17T00:11:56;100813.20;;;2.96;100.00
54600;BME280;40500;51.084;16.958;2023-02-17T00:14:27;100809.02;;;3.03;100.00
54600;BME280;40500;51.084;16.958;2023-02-17T00:16:57;100810.75;;;3.11;100.00
54600;BME280;40500;51.084;16.958;2023-02-17T00:19:27;100812.80;;;3.18;100.00
54600;BME280;40500;51.084;16.958;2023-02-17T00:21:59;100817.96;;;3.26;100.00
54600;BME280;40500;51.084;16.958;2023-02-17T00:24:31;100816.52;;;3.31;100.00
54600;BME280;40500;51.084;16.958;2023-02-17T00:27:02;100816.59;;;3.34;100.00
54600;BME280;40500;51.084;16.958;2023-02-17T00:29:32;100816.73;;;3.33;100.00
54600;BME280;40500;51.084;16.958;2023-02-17T00:32:03;100813.95;;;3.33;100.00
54600;BME280;40500;51.084;16.958;2023-02-17T00:34:34;100810.70;;;3.35;100.00
54600;BME280;40500;51.084;16.958;2023-02-17T00:37:05;100812.02;;;3.40;100.00
54600;BME280;40500;51.084;16.958;2023-02-17T00:39:35;100808.48;;;3.44;100.00
54600;BME280;40500;51.084;16.958;2023-02-17T00:42:05;100810.80;;;3.49;100.00
54600;BME280;40500;51.084;16.958;2023-02-17T00:44:36;100807.42;;;3.52;100.00
54600;BME280;40500;51.084;16.958;2023-02-17T00:47:06;100809.22;;;3.56;100.00
54600;BME280;40500;51.084;16.958;2023-02-17T00:49:38;100806.02;;;3.61;100.00
54600;BME280;40500;51.084;16.958;2023-02-17T00:52:10;100803.65;;;3.64;100.00
54600;BME280;40500;51.084;16.958;2023-02-17T00:54:40;100799.19;;;3.67;100.00
54600;BME280;40500;51.084;16.958;2023-02-17T00:57:11;100801.16;;;3.69;100.00
54600;BME280;40500;51.084;16.958;2023-02-17T00:59:41;100798.09;;;3.72;100.00
54600;BME280;40500;51.084;16.958;2023-02-17T01:02:12;100792.95;;;3.75;100.00
54600;BME280;40500;51.084;16.958;2023-02-17T01:04:42;100795.10;;;3.79;100.00
54600;BME280;40500;51.084;16.958;2023-02-17T01:07:16;100799.10;;;3.81;100.00
54600;BME280;40500;51.084;16.958;2023-02-17T01:09:48;100788.89;;;3.81;100.00
54600;BME280;40500;51.084;16.958;2023-02-17T01:12:18;100787.67;;;3.80;100.00
54600;BME280;40500;51.084;16.958;2023-02-17T01:14:50;100786.91;;;3.76;100.00
54600;BME280;40500;51.084;16.958;2023-02-17T01:17:20;100782.16;;;3.72;100.00
54600;BME280;40500;51.084;16.958;2023-02-17T01:19:50;100782.80;;;3.70;100.00
54600;BME280;40500;51.084;16.958;2023-02-17T01:22:21;100779.97;;;3.66;100.00
54600;BME280;40500;51.084;16.958;2023-02-17T01:24:51;100779.06;;;3.64;100.00
54600;BME280;40500;51.084;16.958;2023-02-17T01:27:22;100778.77;;;3.67;100.00
54600;BME280;40500;51.084;16.958;2023-02-17T01:29:52;100777.23;;;3.68;100.00
54600;BME280;40500;51.084;16.958;2023-02-17T01:32:22;100772.20;;;3.68;100.00
54600;BME280;40500;51.084;16.958;2023-02-17T01:34:55;100768.95;;;3.70;100.00
54600;BME280;40500;51.084;16.958;2023-02-17T01:37:25;100767.92;;;3.71;100.00
54600;BME280;40500;51.084;16.958;2023-02-17T01:39:56;100767.25;;;3.72;100.00
54600;BME280;40500;51.084;16.958;2023-02-17T01:42:26;100766.69;;;3.79;100.00
54600;BME280;40500;51.084;16.958;2023-02-17T01:45:27;100762.85;;;3.87;100.00
54600;BME280;40500;51.084;16.958;2023-02-17T01:48:00;100763.52;;;3.97;100.00
54600;BME280;40500;51.084;16.958;2023-02-17T01:50:36;100754.44;;;4.03;100.00
54600;BME280;40500;51.084;16.958;2023-02-17T01:53:09;100747.25;;;4.08;100.00
54600;BME280;40500;51.084;16.958;2023-02-17T01:55:42;100743.01;;;4.14;100.00
54600;BME280;40500;51.084;16.958;2023-02-17T01:58:14;100742.04;;;4.18;100.00
54600;BME280;40500;51.084;16.958;2023-02-17T02:00:48;100734.48;;;4.22;100.00
54600;BME280;40500;51.084;16.958;2023-02-17T02:03:21;100732.11;;;4.27;100.00
54600;BME280;40500;51.084;16.958;2023-02-17T02:05:52;100730.80;;;4.32;100.00
54600;BME280;40500;51.084;16.958;2023-02-17T02:08:23;100725.48;;;4.35;100.00
54600;BME280;40500;51.084;16.958;2023-02-17T02:10:56;100724.48;;;4.38;100.00
54600;BME280;40500;51.084;16.958;2023-02-17T02:13:28;100720.70;;;4.40;100.00
54600;BME280;40500;51.084;16.958;2023-02-17T02:16:07;100712.73;;;4.41;100.00
54600;BME280;40500;51.084;16.958;2023-02-17T02:18:47;100710.33;;;4.43;100.00
54600;BME280;40500;51.084;16.958;2023-02-17T02:24:24;100703.61;;;4.45;100.00
54600;BME280;40500;51.084;16.958;2023-02-17T02:27:33;100697.23;;;4.48;100.00
54600;BME280;40500;51.084;16.958;2023-02-17T02:30:24;100695.89;;;4.51;100.00
54600;BME280;40500;51.084;16.958;2023-02-17T02:33:04;100684.81;;;4.53;100.00
54600;BME280;40500;51.084;16.958;2023-02-17T02:35:44;100682.09;;;4.57;100.00
54600;BME280;40500;51.084;16.958;2023-02-17T02:38:23;100674.67;;;4.60;100.00
54600;BME280;40500;51.084;16.958;2023-02-17T02:41:00;100675.41;;;4.64;100.00
54600;BME280;40500;51.084;16.958;2023-02-17T02:43:32;100671.45;;;4.66;100.00
54600;BME280;40500;51.084;16.958;2023-02-17T02:46:03;100672.88;;;4.70;100.00
54600;BME280;40500;51.084;16.958;2023-02-17T02:48:34;100667.71;;;4.73;100.00
54600;BME280;40500;51.084;16.958;2023-02-17T02:51:28;100664.27;;;4.76;100.00
54600;BME280;40500;51.084;16.958;2023-02-17T02:54:17;100655.46;;;4.79;100.00
54600;BME280;40500;51.084;16.958;2023-02-17T02:57:03;100653.75;;;4.80;100.00
54600;BME280;40500;51.084;16.958;2023-02-17T02:59:45;100656.02;;;4.82;100.00
54600;BME280;40500;51.084;16.958;2023-02-17T03:02:29;100652.23;;;4.84;100.00
54600;BME280;40500;51.084;16.958;2023-02-17T03:05:06;100653.80;;;4.86;100.00
54600;BME280;40500;51.084;16.958;2023-02-17T03:07:44;100647.75;;;4.88;100.00
54600;BME280;40500;51.084;16.958;2023-02-17T03:10:16;100646.57;;;4.90;100.00
54600;BME280;40500;51.084;16.958;2023-02-17T03:12:47;100649.88;;;4.92;100.00
54600;BME280;40500;51.084;16.958;2023-02-17T03:15:22;100647.98;;;4.93;100.00
54600;BME280;40500;51.084;16.958;2023-02-17T03:17:57;100647.83;;;4.95;100.00
54600;BME280;40500;51.084;16.958;2023-02-17T03:20:31;100641.07;;;4.96;100.00
54600;BME280;40500;51.084;16.958;2023-02-17T03:23:05;100641.27;;;4.97;100.00
54600;BME280;40500;51.084;16.958;2023-02-17T03:25:36;100642.33;;;4.99;100.00
54600;BME280;40500;51.084;16.958;2023-02-17T03:28:06;100645.11;;;4.99;100.00
54600;BME280;40500;51.084;16.958;2023-02-17T03:30:37;100643.90;;;5.00;100.00
54600;BME280;40500;51.084;16.958;2023-02-17T03:33:08;100645.46;;;5.01;100.00
54600;BME280;40500;51.084;16.958;2023-02-17T03:35:38;100646.36;;;5.03;100.00
54600;BME280;40500;51.084;16.958;2023-02-17T03:38:08;100652.27;;;5.05;100.00
54600;BME280;40500;51.084;16.958;2023-02-17T03:40:39;100643.96;;;5.06;100.00
54600;BME280;40500;51.084;16.958;2023-02-17T03:43:09;100638.77;;;5.06;100.00
54600;BME280;40500;51.084;16.958;2023-02-17T03:45:40;100638.27;;;5.08;100.00
54600;BME280;40500;51.084;16.958;2023-02-17T03:48:10;100637.88;;;5.05;100.00
54600;BME280;40500;51.084;16.958;2023-02-17T03:50:40;100639.11;;;5.06;100.00
54600;BME280;40500;51.084;16.958;2023-02-17T03:53:12;100638.23;;;5.07;100.00
54600;BME280;40500;51.084;16.958;2023-02-17T03:55:42;100637.89;;;5.07;100.00
54600;BME280;40500;51.084;16.958;2023-02-17T03:58:13;100639.63;;;5.07;100.00
54600;BME280;40500;51.084;16.958;2023-02-17T04:00:43;100633.20;;;5.07;100.00
54600;BME280;40500;51.084;16.958;2023-02-17T04:03:13;100629.22;;;5.07;100.00
54600;BME280;40500;51.084;16.958;2023-02-17T04:05:45;100628.88;;;5.07;100.00
54600;BME280;40500;51.084;16.958;2023-02-17T04:08:15;100628.71;;;5.08;100.00
54600;BME280;40500;51.084;16.958;2023-02-17T04:10:46;100629.08;;;5.09;100.00
54600;BME280;40500;51.084;16.958;2023-02-17T04:13:20;100629.77;;;5.10;100.00
54600;BME280;40500;51.084;16.958;2023-02-17T04:15:51;100628.23;;;5.12;100.00
54600;BME280;40500;51.084;16.958;2023-02-17T04:18:22;100626.15;;;5.13;100.00
54600;BME280;40500;51.084;16.958;2023-02-17T04:20:53;100627.05;;;5.15;100.00
54600;BME280;40500;51.084;16.958;2023-02-17T04:23:23;100622.55;;;5.17;100.00
54600;BME280;40500;51.084;16.958;2023-02-17T04:25:54;100620.33;;;5.21;100.00
54600;BME280;40500;51.084;16.958;2023-02-17T04:28:24;100620.17;;;5.23;100.00
54600;BME280;40500;51.084;16.958;2023-02-17T04:30:58;100615.00;;;5.26;100.00
54600;BME280;40500;51.084;16.958;2023-02-17T04:33:29;100606.16;;;5.28;100.00
54600;BME280;40500;51.084;16.958;2023-02-17T04:35:59;100596.28;;;5.30;100.00
54600;BME280;40500;51.084;16.958;2023-02-17T04:38:31;100592.11;;;5.31;100.00
54600;BME280;40500;51.084;16.958;2023-02-17T04:41:02;100593.34;;;5.32;100.00
54600;BME280;40500;51.084;16.958;2023-02-17T04:43:33;100590.91;;;5.31;100.00
54600;BME280;40500;51.084;16.958;2023-02-17T04:46:03;100587.26;;;5.32;100.00
54600;BME280;40500;51.084;16.958;2023-02-17T04:48:34;100586.06;;;5.33;100.00
54600;BME280;40500;51.084;16.958;2023-02-17T04:51:05;100585.72;;;5.34;100.00
54600;BME280;40500;51.084;16.958;2023-02-17T04:53:36;100587.64;;;5.36;100.00
54600;BME280;40500;51.084;16.958;2023-02-17T04:56:07;100583.67;;;5.37;100.00
54600;BME280;40500;51.084;16.958;2023-02-17T04:58:37;100589.23;;;5.38;100.00
54600;BME280;40500;51.084;16.958;2023-02-17T05:01:07;100580.55;;;5.37;100.00
54600;BME280;40500;51.084;16.958;2023-02-17T05:03:38;100576.38;;;5.38;100.00
54600;BME280;40500;51.084;16.958;2023-02-17T05:06:08;100573.95;;;5.38;100.00
54600;BME280;40500;51.084;16.958;2023-02-17T05:08:38;100568.89;;;5.37;100.00
54600;BME280;40500;51.084;16.958;2023-02-17T05:11:09;100568.23;;;5.39;100.00
54600;BME280;40500;51.084;16.958;2023-02-17T05:13:39;100567.00;;;5.39;100.00
54600;BME280;40500;51.084;16.958;2023-02-17T05:16:09;100568.05;;;5.38;100.00
54600;BME280;40500;51.084;16.958;2023-02-17T05:18:40;100563.70;;;5.37;100.00
54600;BME280;40500;51.084;16.958;2023-02-17T05:21:10;100566.33;;;5.39;100.00
54600;BME280;40500;51.084;16.958;2023-02-17T05:23:40;100565.80;;;5.40;100.00
54600;BME280;40500;51.084;16.958;2023-02-17T05:26:11;100565.46;;;5.41;100.00
54600;BME280;40500;51.084;16.958;2023-02-17T05:28:41;100564.08;;;5.43;100.00
54600;BME280;40500;51.084;16.958;2023-02-17T05:31:12;100564.27;;;5.45;100.00
54600;BME280;40500;51.084;16.958;2023-02-17T05:33:42;100561.35;;;5.48;100.00
54600;BME280;40500;51.084;16.958;2023-02-17T05:36:13;100554.07;;;5.51;100.00
54600;BME280;40500;51.084;16.958;2023-02-17T05:38:43;100549.06;;;5.54;100.00
54600;BME280;40500;51.084;16.958;2023-02-17T05:41:17;100549.61;;;5.59;100.00
54600;BME280;40500;51.084;16.958;2023-02-17T05:43:48;100551.21;;;5.64;100.00
54600;BME280;40500;51.084;16.958;2023-02-17T05:46:18;100549.31;;;5.68;100.00
54600;BME280;40500;51.084;16.958;2023-02-17T05:48:51;100544.65;;;5.71;100.00
54600;BME280;40500;51.084;16.958;2023-02-17T05:51:23;100536.15;;;5.73;100.00
54600;BME280;40500;51.084;16.958;2023-02-17T05:53:54;100536.16;;;5.74;100.00
54600;BME280;40500;51.084;16.958;2023-02-17T05:56:24;100537.57;;;5.77;100.00
54600;BME280;40500;51.084;16.958;2023-02-17T05:58:54;100544.16;;;5.78;100.00
54600;BME280;40500;51.084;16.958;2023-02-17T06:01:25;100539.67;;;5.80;100.00
54600;BME280;40500;51.084;16.958;2023-02-17T06:03:55;100539.85;;;5.82;100.00
54600;BME280;40500;51.084;16.958;2023-02-17T06:06:25;100542.12;;;5.83;100.00
54600;BME280;40500;51.084;16.958;2023-02-17T06:08:56;100550.63;;;5.82;100.00
54600;BME280;40500;51.084;16.958;2023-02-17T06:11:26;100549.91;;;5.78;100.00
54600;BME280;40500;51.084;16.958;2023-02-17T06:13:57;100550.58;;;5.74;100.00
54600;BME280;40500;51.084;16.958;2023-02-17T06:16:27;100552.83;;;5.71;100.00
54600;BME280;40500;51.084;16.958;2023-02-17T06:18:57;100555.56;;;5.68;100.00
54600;BME280;40500;51.084;16.958;2023-02-17T06:21:30;100549.65;;;5.67;100.00
54600;BME280;40500;51.084;16.958;2023-02-17T06:24:01;100551.56;;;5.66;100.00
54600;BME280;40500;51.084;16.958;2023-02-17T06:26:31;100550.33;;;5.62;100.00
54600;BME280;40500;51.084;16.958;2023-02-17T06:29:01;100549.63;;;5.61;100.00
54600;BME280;40500;51.084;16.958;2023-02-17T06:31:32;100549.27;;;5.60;100.00
54600;BME280;40500;51.084;16.958;2023-02-17T06:34:03;100550.82;;;5.58;100.00
54600;BME280;40500;51.084;16.958;2023-02-17T06:36:34;100549.08;;;5.57;100.00
54600;BME280;40500;51.084;16.958;2023-02-17T06:39:05;100549.23;;;5.57;100.00
54600;BME280;40500;51.084;16.958;2023-02-17T06:41:35;100550.80;;;5.56;100.00
54600;BME280;40500;51.084;16.958;2023-02-17T06:44:06;100546.80;;;5.55;100.00
54600;BME280;40500;51.084;16.958;2023-02-17T06:46:37;100547.84;;;5.54;100.00
54600;BME280;40500;51.084;16.958;2023-02-17T06:49:08;100547.66;;;5.53;100.00
54600;BME280;40500;51.084;16.958;2023-02-17T06:51:38;100542.09;;;5.53;100.00
54600;BME280;40500;51.084;16.958;2023-02-17T06:54:08;100542.97;;;5.53;100.00
54600;BME280;40500;51.084;16.958;2023-02-17T06:56:39;100539.16;;;5.55;100.00
54600;BME280;40500;51.084;16.958;2023-02-17T06:59:09;100535.53;;;5.57;100.00
54600;BME280;40500;51.084;16.958;2023-02-17T07:01:40;100536.73;;;5.56;100.00
54600;BME280;40500;51.084;16.958;2023-02-17T07:04:10;100544.37;;;5.57;100.00
54600;BME280;40500;51.084;16.958;2023-02-17T07:06:41;100542.64;;;5.56;100.00
54600;BME280;40500;51.084;16.958;2023-02-17T07:09:11;100541.08;;;5.57;100.00
54600;BME280;40500;51.084;16.958;2023-02-17T07:11:42;100537.27;;;5.59;100.00
54600;BME280;40500;51.084;16.958;2023-02-17T07:14:13;100534.15;;;5.59;100.00
54600;BME280;40500;51.084;16.958;2023-02-17T07:16:43;100539.91;;;5.62;100.00
54600;BME280;40500;51.084;16.958;2023-02-17T07:19:14;100540.27;;;5.64;100.00
54600;BME280;40500;51.084;16.958;2023-02-17T07:21:44;100536.64;;;5.68;100.00
54600;BME280;40500;51.084;16.958;2023-02-17T07:24:15;100532.15;;;5.71;100.00
54600;BME280;40500;51.084;16.958;2023-02-17T07:26:45;100533.38;;;5.75;100.00
54600;BME280;40500;51.084;16.958;2023-02-17T07:29:16;100531.69;;;5.81;100.00
54600;BME280;40500;51.084;16.958;2023-02-17T07:31:46;100529.29;;;5.87;100.00
54600;BME280;40500;51.084;16.958;2023-02-17T07:34:16;100522.86;;;5.91;100.00
54600;BME280;40500;51.084;16.958;2023-02-17T07:36:47;100524.67;;;5.98;100.00
54600;BME280;40500;51.084;16.958;2023-02-17T07:39:17;100521.56;;;6.04;100.00
54600;BME280;40500;51.084;16.958;2023-02-17T07:41:47;100518.11;;;6.09;100.00
54600;BME280;40500;51.084;16.958;2023-02-17T07:44:19;100515.70;;;6.13;100.00
54600;BME280;40500;51.084;16.958;2023-02-17T07:46:50;100511.55;;;6.17;100.00
54600;BME280;40500;51.084;16.958;2023-02-17T07:49:21;100507.20;;;6.23;100.00
54600;BME280;40500;51.084;16.958;2023-02-17T07:51:51;100508.62;;;6.26;100.00
54600;BME280;40500;51.084;16.958;2023-02-17T07:54:21;100505.85;;;6.30;100.00
54600;BME280;40500;51.084;16.958;2023-02-17T07:56:52;100506.03;;;6.34;100.00
54600;BME280;40500;51.084;16.958;2023-02-17T07:59:22;100503.95;;;6.38;100.00
54600;BME280;40500;51.084;16.958;2023-02-17T08:01:53;100503.27;;;6.41;100.00
54600;BME280;40500;51.084;16.958;2023-02-17T08:04:23;100507.80;;;6.44;100.00
54600;BME280;40500;51.084;16.958;2023-02-17T08:06:53;100505.20;;;6.46;100.00
54600;BME280;40500;51.084;16.958;2023-02-17T08:09:24;100502.25;;;6.50;100.00
54600;BME280;40500;51.084;16.958;2023-02-17T08:12:16;100501.04;;;6.52;100.00
54600;BME280;40500;51.084;16.958;2023-02-17T08:15:05;100495.30;;;6.57;100.00
54600;BME280;40500;51.084;16.958;2023-02-17T08:17:36;100496.00;;;6.60;100.00
54600;BME280;40500;51.084;16.958;2023-02-17T08:20:08;100493.05;;;6.64;100.00
54600;BME280;40500;51.084;16.958;2023-02-17T08:22:38;100492.02;;;6.67;100.00
54600;BME280;40500;51.084;16.958;2023-02-17T08:25:13;100486.11;;;6.70;100.00
54600;BME280;40500;51.084;16.958;2023-02-17T08:27:48;100489.60;;;6.75;100.00
54600;BME280;40500;51.084;16.958;2023-02-17T08:30:19;100497.08;;;6.80;100.00
54600;BME280;40500;51.084;16.958;2023-02-17T08:33:02;100495.00;;;6.87;100.00
54600;BME280;40500;51.084;16.958;2023-02-17T08:35:36;100492.73;;;6.90;100.00
54600;BME280;40500;51.084;16.958;2023-02-17T08:38:07;100497.61;;;6.92;100.00
54600;BME280;40500;51.084;16.958;2023-02-17T08:40:38;100497.27;;;6.96;100.00
54600;BME280;40500;51.084;16.958;2023-02-17T08:43:10;100492.04;;;6.99;100.00
54600;BME280;40500;51.084;16.958;2023-02-17T08:45:40;100492.57;;;7.02;100.00
54600;BME280;40500;51.084;16.958;2023-02-17T08:48:10;100490.13;;;7.04;100.00
54600;BME280;40500;51.084;16.958;2023-02-17T08:50:41;100478.98;;;7.05;100.00
54600;BME280;40500;51.084;16.958;2023-02-17T08:53:11;100478.81;;;7.05;100.00
54600;BME280;40500;51.084;16.958;2023-02-17T08:55:44;100478.28;;;7.08;100.00
54600;BME280;40500;51.084;16.958;2023-02-17T08:58:17;100471.14;;;7.11;100.00
54600;BME280;40500;51.084;16.958;2023-02-17T09:00:48;100469.93;;;7.17;100.00
54600;BME280;40500;51.084;16.958;2023-02-17T09:03:18;100470.61;;;7.21;100.00
54600;BME280;40500;51.084;16.958;2023-02-17T09:05:51;100474.27;;;7.24;100.00
54600;BME280;40500;51.084;16.958;2023-02-17T09:08:23;100476.17;;;7.28;100.00
54600;BME280;40500;51.084;16.958;2023-02-17T09:10:54;100479.13;;;7.32;100.00
54600;BME280;40500;51.084;16.958;2023-02-17T09:13:25;100479.48;;;7.35;100.00
54600;BME280;40500;51.084;16.958;2023-02-17T09:15:56;100472.52;;;7.36;100.00
54600;BME280;40500;51.084;16.958;2023-02-17T09:18:27;100474.08;;;7.38;100.00
54600;BME280;40500;51.084;16.958;2023-02-17T09:20:58;100478.77;;;7.42;100.00
54600;BME280;40500;51.084;16.958;2023-02-17T09:23:29;100483.83;;;7.44;100.00
54600;BME280;40500;51.084;16.958;2023-02-17T09:26:06;100481.91;;;7.45;100.00
54600;BME280;40500;51.084;16.958;2023-02-17T09:28:41;100480.50;;;7.47;100.00
54600;BME280;40500;51.084;16.958;2023-02-17T09:31:17;100477.54;;;7.48;100.00
54600;BME280;40500;51.084;16.958;2023-02-17T09:33:49;100469.70;;;7.49;100.00
54600;BME280;40500;51.084;16.958;2023-02-17T09:36:22;100473.88;;;7.49;100.00
54600;BME280;40500;51.084;16.958;2023-02-17T09:38:54;100467.43;;;7.49;100.00
54600;BME280;40500;51.084;16.958;2023-02-17T09:41:27;100469.69;;;7.49;100.00
54600;BME280;40500;51.084;16.958;2023-02-17T09:44:03;100461.16;;;7.49;100.00
54600;BME280;40500;51.084;16.958;2023-02-17T09:46:38;100461.16;;;7.48;100.00
54600;BME280;40500;51.084;16.958;2023-02-17T09:49:34;100460.29;;;7.48;100.00
54600;BME280;40500;51.084;16.958;2023-02-17T09:52:10;100458.91;;;7.49;100.00
54600;BME280;40500;51.084;16.958;2023-02-17T09:54:48;100451.58;;;7.50;100.00
54600;BME280;40500;51.084;16.958;2023-02-17T09:57:29;100454.88;;;7.52;100.00
54600;BME280;40500;51.084;16.958;2023-02-17T10:00:08;100451.55;;;7.52;100.00
54600;BME280;40500;51.084;16.958;2023-02-17T10:05:35;100440.77;;;7.57;100.00
54600;BME280;40500;51.084;16.958;2023-02-17T10:08:11;100443.19;;;7.59;100.00
54600;BME280;40500;51.084;16.958;2023-02-17T10:10:45;100438.81;;;7.61;100.00
54600;BME280;40500;51.084;16.958;2023-02-17T10:13:21;100435.85;;;7.62;100.00
54600;BME280;40500;51.084;16.958;2023-02-17T10:16:02;100429.23;;;7.64;100.00
54600;BME280;40500;51.084;16.958;2023-02-17T10:18:38;100430.27;;;7.66;100.00
54600;BME280;40500;51.084;16.958;2023-02-17T10:21:15;100422.08;;;7.68;100.00
54600;BME280;40500;51.084;16.958;2023-02-17T10:23:50;100417.52;;;7.72;100.00
54600;BME280;40500;51.084;16.958;2023-02-17T10:26:28;100410.89;;;7.75;100.00
54600;BME280;40500;51.084;16.958;2023-02-17T10:29:06;100412.09;;;7.79;100.00
54600;BME280;40500;51.084;16.958;2023-02-17T10:31:45;100407.89;;;7.81;100.00
54600;BME280;40500;51.084;16.958;2023-02-17T10:34:25;100400.38;;;7.84;100.00
54600;BME280;40500;51.084;16.958;2023-02-17T10:37:02;100396.54;;;7.87;100.00
54600;BME280;40500;51.084;16.958;2023-02-17T10:39:46;100396.16;;;7.91;100.00
54600;BME280;40500;51.084;16.958;2023-02-17T10:42:23;100394.05;;;7.92;100.00
54600;BME280;40500;51.084;16.958;2023-02-17T10:44:57;100395.98;;;7.94;100.00
54600;BME280;40500;51.084;16.958;2023-02-17T10:47:30;100392.30;;;7.95;100.00
54600;BME280;40500;51.084;16.958;2023-02-17T10:50:04;100391.60;;;7.99;100.00
54600;BME280;40500;51.084;16.958;2023-02-17T10:52:38;100388.45;;;8.03;100.00
54600;BME280;40500;51.084;16.958;2023-02-17T10:55:19;100379.52;;;8.06;100.00
54600;BME280;40500;51.084;16.958;2023-02-17T10:57:56;100367.99;;;8.08;100.00
54600;BME280;40500;51.084;16.958;2023-02-17T11:00:28;100360.65;;;8.10;100.00
54600;BME280;40500;51.084;16.958;2023-02-17T11:02:59;100354.19;;;8.12;100.00
54600;BME280;40500;51.084;16.958;2023-02-17T11:05:31;100349.80;;;8.15;100.00
54600;BME280;40500;51.084;16.958;2023-02-17T11:08:05;100344.72;;;8.20;100.00
54600;BME280;40500;51.084;16.958;2023-02-17T11:10:39;100340.52;;;8.22;100.00
54600;BME280;40500;51.084;16.958;2023-02-17T11:13:29;100334.05;;;8.25;100.00
54600;BME280;40500;51.084;16.958;2023-02-17T11:16:01;100327.90;;;8.30;100.00
54600;BME280;40500;51.084;16.958;2023-02-17T11:18:34;100326.13;;;8.33;100.00
54600;BME280;40500;51.084;16.958;2023-02-17T11:21:10;100318.77;;;8.37;100.00
54600;BME280;40500;51.084;16.958;2023-02-17T11:23:50;100317.35;;;8.40;100.00
54600;BME280;40500;51.084;16.958;2023-02-17T11:26:28;100314.58;;;8.42;100.00
54600;BME280;40500;51.084;16.958;2023-02-17T11:29:09;100311.91;;;8.48;100.00
54600;BME280;40500;51.084;16.958;2023-02-17T11:31:40;100303.79;;;8.57;100.00
54600;BME280;40500;51.084;16.958;2023-02-17T11:34:14;100297.27;;;8.64;100.00
54600;BME280;40500;51.084;16.958;2023-02-17T11:36:45;100295.30;;;8.69;100.00
54600;BME280;40500;51.084;16.958;2023-02-17T11:39:29;100288.08;;;8.76;100.00
54600;BME280;40500;51.084;16.958;2023-02-17T11:41:59;100277.31;;;8.85;100.00
54600;BME280;40500;51.084;16.958;2023-02-17T11:44:32;100274.10;;;8.93;100.00
54600;BME280;40500;51.084;16.958;2023-02-17T11:47:14;100268.98;;;8.98;100.00
54600;BME280;40500;51.084;16.958;2023-02-17T11:50:07;100267.91;;;8.99;100.00
54600;BME280;40500;51.084;16.958;2023-02-17T11:53:19;100253.53;;;9.04;100.00
54600;BME280;40500;51.084;16.958;2023-02-17T11:56:04;100246.67;;;9.08;100.00
54600;BME280;40500;51.084;16.958;2023-02-17T11:58:52;100239.84;;;9.09;100.00
54600;BME280;40500;51.084;16.958;2023-02-17T12:01:37;100234.75;;;9.13;100.00
54600;BME280;40500;51.084;16.958;2023-02-17T12:04:30;100228.07;;;9.15;100.00
54600;BME280;40500;51.084;16.958;2023-02-17T12:07:20;100218.41;;;9.19;100.00
54600;BME280;40500;51.084;16.958;2023-02-17T12:09:58;100213.66;;;9.22;100.00
54600;BME280;40500;51.084;16.958;2023-02-17T12:12:51;100208.39;;;9.24;100.00
54600;BME280;40500;51.084;16.958;2023-02-17T12:15:30;100198.22;;;9.26;100.00
54600;BME280;40500;51.084;16.958;2023-02-17T12:18:14;100197.11;;;9.29;100.00
54600;BME280;40500;51.084;16.958;2023-02-17T12:20:55;100189.98;;;9.27;100.00
54600;BME280;40500;51.084;16.958;2023-02-17T12:26:39;100186.36;;;9.12;100.00
54600;BME280;40500;51.084;16.958;2023-02-17T12:29:22;100181.90;;;9.06;100.00
54600;BME280;40500;51.084;16.958;2023-02-17T12:32:07;100174.95;;;9.02;100.00
54600;BME280;40500;51.084;16.958;2023-02-17T12:34:52;100172.02;;;9.00;100.00
54600;BME280;40500;51.084;16.958;2023-02-17T12:37:24;100166.80;;;8.98;100.00
54600;BME280;40500;51.084;16.958;2023-02-17T12:40:00;100167.02;;;8.95;100.00
54600;BME280;40500;51.084;16.958;2023-02-17T12:42:44;100164.61;;;8.92;100.00
54600;BME280;40500;51.084;16.958;2023-02-17T12:45:21;100166.02;;;8.92;100.00
54600;BME280;40500;51.084;16.958;2023-02-17T12:48:00;100158.86;;;8.92;100.00
54600;BME280;40500;51.084;16.958;2023-02-17T12:50:41;100153.95;;;8.94;100.00
54600;BME280;40500;51.084;16.958;2023-02-17T12:53:21;100146.58;;;8.95;100.00
54600;BME280;40500;51.084;16.958;2023-02-17T12:55:59;100134.00;;;8.97;100.00
54600;BME280;40500;51.084;16.958;2023-02-17T12:58:33;100133.42;;;9.00;100.00
54600;BME280;40500;51.084;16.958;2023-02-17T13:01:12;100131.08;;;9.05;100.00
54600;BME280;40500;51.084;16.958;2023-02-17T13:03:46;100128.08;;;9.19;100.00
54600;BME280;40500;51.084;16.958;2023-02-17T13:06:38;100129.25;;;9.35;100.00
54600;BME280;40500;51.084;16.958;2023-02-17T13:09:22;100125.59;;;9.35;100.00
54600;BME280;40500;51.084;16.958;2023-02-17T13:11:54;100120.59;;;9.30;100.00
54600;BME280;40500;51.084;16.958;2023-02-17T13:14:43;100112.04;;;9.29;100.00
54600;BME280;40500;51.084;16.958;2023-02-17T13:17:29;100112.09;;;9.25;100.00
54600;BME280;40500;51.084;16.958;2023-02-17T13:20:37;100103.08;;;9.21;100.00
54600;BME280;40500;51.084;16.958;2023-02-17T13:23:12;100103.33;;;9.16;100.00
54600;BME280;40500;51.084;16.958;2023-02-17T13:25:43;100100.06;;;9.13;100.00